createdAt,value
2023-02-28T00:00:17.635Z,2.70
2023-02-28T00:03:04.701Z,2.37
2023-02-28T00:05:51.696Z,2.10
2023-02-28T00:08:39.330Z,2.57
2023-02-28T00:11:26.467Z,2.20
2023-02-28T00:14:13.557Z,2.10
2023-02-28T00:17:00.637Z,2.30
2023-02-28T00:19:49.402Z,2.23
2023-02-28T00:22:37.905Z,2.10
2023-02-28T00:25:26.253Z,2.30
2023-02-28T00:28:13.321Z,2.43
2023-02-28T00:31:01.185Z,2.47
2023-02-28T00:33:49.558Z,2.60
2023-02-28T00:36:36.550Z,2.43
2023-02-28T00:39:25.166Z,2.50
2023-02-28T00:42:12.115Z,2.60
2023-02-28T00:44:59.068Z,2.60
2023-02-28T00:47:47.481Z,2.47
2023-02-28T00:50:34.791Z,2.30
2023-02-28T00:53:22.952Z,2.53
2023-02-28T00:56:09.911Z,2.50
2023-02-28T00:58:56.855Z,2.53
2023-02-28T01:01:46.113Z,2.63
2023-02-28T01:04:33.438Z,2.40
2023-02-28T01:07:21.980Z,2.60
2023-02-28T01:10:09.912Z,2.27
2023-02-28T01:12:56.906Z,2.47
2023-02-28T01:15:52.179Z,2.30
2023-02-28T01:18:40.369Z,2.43
2023-02-28T01:21:28.656Z,2.67
2023-02-28T01:24:15.860Z,2.30
2023-02-28T01:27:03.399Z,2.37
2023-02-28T01:29:51.490Z,2.47
2023-02-28T01:32:38.432Z,2.30
2023-02-28T01:35:25.456Z,2.73
2023-02-28T01:38:21.664Z,2.30
2023-02-28T01:41:18.193Z,2.57
2023-02-28T01:44:08.552Z,2.73
2023-02-28T01:46:55.576Z,2.43
2023-02-28T01:49:42.969Z,2.73
2023-02-28T01:52:31.128Z,2.67
2023-02-28T01:55:21.359Z,2.40
2023-02-28T01:58:10.069Z,2.30
2023-02-28T02:00:58.333Z,2.40
2023-02-28T02:03:45.301Z,2.50
2023-02-28T02:06:43.204Z,2.80
2023-02-28T02:09:31.121Z,2.43
2023-02-28T02:12:46.383Z,2.77
2023-02-28T02:15:50.290Z,2.53
2023-02-28T02:18:48.284Z,2.57
2023-02-28T02:22:13.000Z,2.57
2023-02-28T02:25:13.774Z,2.60
2023-02-28T02:28:16.356Z,2.60
2023-02-28T02:31:15.487Z,2.57
2023-02-28T02:34:39.829Z,2.90
2023-02-28T02:37:52.831Z,2.97
2023-02-28T02:40:48.714Z,2.90
2023-02-28T02:43:41.717Z,3.20
2023-02-28T02:46:38.600Z,3.27
2023-02-28T02:49:31.520Z,3.20
2023-02-28T02:52:22.135Z,3.57
2023-02-28T02:55:13.063Z,2.90
2023-02-28T02:58:04.314Z,3.20
2023-02-28T03:00:55.653Z,3.47
2023-02-28T03:03:44.313Z,3.40
2023-02-28T03:06:31.372Z,3.23
2023-02-28T03:09:18.381Z,3.37
2023-02-28T03:12:12.868Z,3.30
2023-02-28T03:15:13.057Z,3.60
2023-02-28T03:18:12.498Z,3.50
2023-02-28T03:21:09.690Z,3.80
2023-02-28T03:24:11.273Z,3.23
2023-02-28T03:27:11.825Z,3.10
2023-02-28T03:30:07.164Z,3.67
2023-02-28T03:33:02.275Z,3.33
2023-02-28T03:35:56.974Z,3.40
2023-02-28T03:38:50.831Z,3.50
2023-02-28T03:41:50.723Z,3.50
2023-02-28T03:44:41.086Z,3.60
2023-02-28T03:47:33.806Z,3.60
2023-02-28T03:50:41.735Z,4.20
2023-02-28T03:53:36.153Z,4.30
2023-02-28T03:56:28.897Z,3.63
2023-02-28T03:59:43.032Z,4.23
2023-02-28T04:02:30.023Z,4.00
2023-02-28T04:05:17.132Z,4.20
2023-02-28T04:08:05.591Z,3.90
2023-02-28T04:11:01.420Z,4.07
2023-02-28T04:13:49.262Z,4.30
2023-02-28T04:16:39.682Z,4.20
2023-02-28T04:19:26.741Z,3.93
2023-02-28T04:22:14.565Z,3.97
2023-02-28T04:25:01.508Z,4.10
2023-02-28T04:27:48.605Z,3.83
2023-02-28T04:30:35.563Z,4.03
2023-02-28T04:33:22.514Z,4.23
2023-02-28T04:36:09.741Z,4.27
2023-02-28T04:38:57.422Z,3.73
2023-02-28T04:41:44.409Z,4.37
2023-02-28T04:44:31.483Z,4.00
2023-02-28T04:47:18.540Z,4.30
2023-02-28T04:50:05.973Z,4.47
2023-02-28T04:52:52.960Z,4.10
2023-02-28T04:55:41.583Z,4.17
2023-02-28T04:58:29.074Z,4.70
2023-02-28T05:01:26.851Z,3.83
2023-02-28T05:04:14.081Z,4.77
2023-02-28T05:07:02.509Z,4.17
2023-02-28T05:09:49.480Z,3.80
2023-02-28T05:12:36.470Z,4.67
2023-02-28T05:15:23.608Z,4.10
2023-02-28T05:18:10.697Z,4.73
2023-02-28T05:20:57.691Z,4.53
2023-02-28T05:23:44.881Z,4.63
2023-02-28T05:26:36.007Z,4.27
2023-02-28T05:29:23.456Z,4.77
2023-02-28T05:32:12.342Z,4.40
2023-02-28T05:34:59.321Z,4.80
2023-02-28T05:37:46.314Z,4.97
2023-02-28T05:40:33.349Z,4.67
2023-02-28T05:43:20.363Z,4.53
2023-02-28T05:46:09.731Z,4.90
2023-02-28T05:48:58.870Z,5.10
2023-02-28T05:51:45.900Z,4.50
2023-02-28T05:54:32.911Z,4.73
2023-02-28T05:57:24.557Z,4.30
2023-02-28T06:00:12.650Z,5.10
2023-02-28T06:03:02.604Z,4.97
2023-02-28T06:05:49.677Z,5.07
2023-02-28T06:08:36.641Z,4.70
2023-02-28T06:11:28.283Z,5.33
2023-02-28T06:14:18.010Z,5.00
2023-02-28T06:17:06.227Z,4.87
2023-02-28T06:19:53.210Z,5.20
2023-02-28T06:22:40.855Z,4.83
2023-02-28T06:25:28.535Z,5.10
2023-02-28T06:28:15.565Z,4.70
2023-02-28T06:31:08.693Z,5.00
2023-02-28T06:33:56.455Z,4.77
2023-02-28T06:36:43.691Z,5.10
2023-02-28T06:39:31.821Z,5.03
2023-02-28T06:42:18.864Z,5.13
2023-02-28T06:45:10.098Z,4.90
2023-02-28T06:47:57.314Z,5.30
2023-02-28T06:50:44.287Z,5.20
2023-02-28T06:53:31.302Z,5.17
2023-02-28T06:56:18.976Z,5.40
2023-02-28T06:59:06.007Z,5.23
2023-02-28T07:01:53.080Z,5.23
2023-02-28T07:04:44.544Z,5.17
2023-02-28T07:07:31.552Z,5.50
2023-02-28T07:10:20.245Z,5.40
2023-02-28T07:13:09.504Z,4.77
2023-02-28T07:15:59.233Z,4.80
2023-02-28T07:18:46.527Z,5.33
2023-02-28T07:21:33.733Z,5.60
2023-02-28T07:24:21.722Z,5.30
2023-02-28T07:27:08.691Z,5.40
2023-02-28T07:29:55.865Z,4.87
2023-02-28T07:32:45.013Z,4.70
2023-02-28T07:35:32.345Z,4.93
2023-02-28T07:38:19.378Z,5.20
2023-02-28T07:41:06.326Z,5.37
2023-02-28T07:43:54.839Z,4.83
2023-02-28T07:46:41.856Z,5.17
2023-02-28T07:49:29.047Z,5.10
2023-02-28T07:52:15.977Z,4.90
2023-02-28T07:55:03.009Z,4.50
2023-02-28T07:57:50.223Z,4.80
2023-02-28T08:00:37.230Z,4.93
2023-02-28T08:03:24.906Z,4.50
2023-02-28T08:06:18.144Z,4.50
2023-02-28T08:09:05.153Z,4.97
2023-02-28T08:11:52.108Z,5.37
2023-02-28T08:14:40.683Z,5.00
2023-02-28T08:17:28.183Z,4.60
2023-02-28T08:20:15.168Z,4.30
2023-02-28T08:23:02.111Z,4.90
2023-02-28T08:25:56.483Z,4.60
2023-02-28T08:28:43.518Z,4.63
2023-02-28T08:31:30.884Z,4.90
2023-02-28T08:34:18.234Z,5.03
2023-02-28T08:37:05.159Z,4.87
2023-02-28T08:39:56.037Z,4.73
2023-02-28T08:42:43.283Z,4.60
2023-02-28T08:45:30.283Z,4.63
2023-02-28T08:48:19.589Z,4.40
2023-02-28T08:51:10.319Z,4.93
2023-02-28T08:54:00.946Z,4.80
2023-02-28T08:56:48.291Z,4.60
2023-02-28T08:59:35.331Z,4.43
2023-02-28T09:02:22.272Z,4.83
2023-02-28T09:05:09.568Z,4.63
2023-02-28T09:07:56.684Z,4.63
2023-02-28T09:10:43.685Z,4.80
2023-02-28T09:13:31.110Z,4.80
2023-02-28T09:16:18.681Z,4.80
2023-02-28T09:19:05.717Z,4.63
2023-02-28T09:21:53.406Z,4.40
2023-02-28T09:27:28.308Z,4.90
2023-02-28T09:30:15.739Z,4.23
2023-02-28T09:33:02.656Z,4.83
2023-02-28T09:36:03.516Z,4.87
2023-02-28T09:38:52.402Z,5.00
2023-02-28T09:41:48.547Z,4.40
2023-02-28T09:44:44.877Z,4.43
2023-02-28T09:47:40.496Z,4.53
2023-02-28T09:50:27.382Z,4.20
2023-02-28T09:53:35.645Z,4.40
2023-02-28T09:56:32.311Z,4.70
2023-02-28T09:59:40.940Z,4.63
2023-02-28T10:03:05.024Z,4.60
2023-02-28T10:06:03.807Z,4.80
2023-02-28T10:09:02.444Z,4.93
2023-02-28T10:11:53.696Z,4.53
2023-02-28T10:14:47.674Z,5.03
2023-02-28T10:17:54.948Z,4.93
2023-02-28T10:20:44.601Z,4.80
2023-02-28T10:23:38.493Z,4.30
2023-02-28T10:26:30.097Z,4.83
2023-02-28T10:29:17.401Z,4.70
2023-02-28T10:32:04.959Z,4.60
2023-02-28T10:34:57.792Z,4.63
2023-02-28T10:37:49.518Z,4.80
2023-02-28T10:40:36.965Z,4.70
2023-02-28T10:43:25.514Z,4.50
2023-02-28T10:46:26.947Z,4.73
2023-02-28T10:49:26.460Z,4.70
2023-02-28T10:52:13.615Z,5.00
2023-02-28T10:55:26.422Z,4.47
2023-02-28T10:58:27.928Z,4.57
2023-02-28T11:01:21.475Z,4.80
2023-02-28T11:04:19.514Z,4.83
2023-02-28T11:07:21.547Z,4.87
2023-02-28T11:10:22.639Z,4.60
2023-02-28T11:13:21.035Z,4.67
2023-02-28T11:16:13.214Z,4.40
2023-02-28T11:19:00.922Z,4.57
2023-02-28T11:22:01.307Z,4.57
2023-02-28T11:24:54.440Z,4.70
2023-02-28T11:27:47.940Z,4.67
2023-02-28T11:30:40.182Z,4.67
2023-02-28T11:33:40.279Z,4.63
2023-02-28T11:36:32.950Z,4.40
2023-02-28T11:39:20.492Z,4.97
2023-02-28T11:42:41.763Z,4.40
2023-02-28T11:45:46.497Z,4.50
2023-02-28T11:48:44.279Z,4.13
2023-02-28T11:51:49.463Z,4.37
2023-02-28T11:54:59.563Z,4.37
2023-02-28T11:58:01.732Z,4.80
2023-02-28T12:00:51.770Z,4.07
2023-02-28T12:03:57.173Z,4.30
2023-02-28T12:06:48.751Z,3.83
2023-02-28T12:10:06.378Z,4.03
2023-02-28T12:13:09.307Z,4.53
2023-02-28T12:16:18.162Z,4.60
2023-02-28T12:19:11.090Z,4.40
2023-02-28T12:22:31.139Z,4.07
2023-02-28T12:25:49.857Z,4.10
2023-02-28T12:28:43.892Z,5.00
2023-02-28T12:31:37.401Z,4.47
2023-02-28T12:34:32.464Z,4.10
2023-02-28T12:37:30.646Z,4.50
2023-02-28T12:40:21.782Z,4.17
2023-02-28T12:43:14.215Z,3.97
2023-02-28T12:46:11.200Z,4.20
2023-02-28T12:49:01.611Z,4.60
2023-02-28T12:51:51.054Z,4.27
2023-02-28T12:55:04.991Z,4.33
2023-02-28T12:58:11.740Z,4.70
2023-02-28T13:01:04.746Z,4.20
2023-02-28T13:04:29.441Z,4.60
2023-02-28T13:07:16.375Z,4.60
2023-02-28T13:10:07.919Z,4.27
2023-02-28T13:12:56.150Z,4.27
2023-02-28T13:15:59.691Z,4.80
2023-02-28T13:18:47.904Z,4.17
2023-02-28T13:21:43.572Z,4.77
2023-02-28T13:24:46.777Z,4.33
2023-02-28T13:27:41.594Z,3.73
2023-02-28T13:31:00.880Z,4.07
2023-02-28T13:33:50.630Z,4.97
2023-02-28T13:36:37.688Z,4.33
2023-02-28T13:39:37.693Z,4.40
2023-02-28T13:42:35.281Z,4.70
2023-02-28T13:45:25.713Z,4.10
2023-02-28T13:48:20.318Z,4.03
2023-02-28T13:51:41.752Z,4.60
2023-02-28T13:54:57.912Z,5.30
2023-02-28T13:58:05.598Z,5.23
2023-02-28T14:01:33.100Z,5.13
2023-02-28T14:04:49.704Z,6.73
2023-02-28T14:07:48.193Z,5.23
2023-02-28T14:10:50.328Z,5.20
2023-02-28T14:13:48.107Z,5.43
2023-02-28T14:16:45.839Z,5.43
2023-02-28T14:19:34.805Z,5.83
2023-02-28T14:22:54.912Z,5.43
2023-02-28T14:26:07.686Z,6.10
2023-02-28T14:29:30.997Z,6.20
2023-02-28T14:32:33.606Z,5.33
2023-02-28T14:35:26.569Z,5.13
2023-02-28T14:38:28.946Z,5.47
2023-02-28T14:41:21.176Z,5.40
2023-02-28T14:44:16.153Z,6.30
2023-02-28T14:47:07.232Z,5.63
2023-02-28T14:49:54.900Z,5.87
2023-02-28T14:52:44.483Z,5.67
2023-02-28T14:55:36.765Z,5.70
2023-02-28T14:58:30.692Z,5.47
2023-02-28T15:01:22.141Z,5.30
2023-02-28T15:04:23.929Z,5.87
2023-02-28T15:07:15.644Z,6.07
2023-02-28T15:10:23.910Z,6.17
2023-02-28T15:13:15.978Z,5.83
2023-02-28T15:16:05.991Z,5.60
2023-02-28T15:18:58.906Z,5.93
2023-02-28T15:21:51.420Z,6.10
2023-02-28T15:24:43.321Z,5.50
2023-02-28T15:27:33.299Z,5.93
2023-02-28T15:30:30.459Z,5.67
2023-02-28T15:33:17.305Z,5.90
2023-02-28T15:36:11.613Z,5.80
2023-02-28T15:39:10.497Z,5.60
2023-02-28T15:42:21.217Z,6.43
2023-02-28T15:45:48.177Z,5.53
2023-02-28T15:48:40.507Z,5.83
2023-02-28T15:51:37.569Z,6.27
2023-02-28T15:54:29.723Z,7.30
2023-02-28T15:57:26.292Z,9.00
2023-02-28T16:00:16.607Z,8.77
2023-02-28T16:03:23.992Z,6.87
2023-02-28T16:06:23.313Z,8.13
2023-02-28T16:09:12.711Z,8.33
2023-02-28T16:12:04.266Z,8.00
2023-02-28T16:14:53.618Z,6.80
2023-02-28T16:17:40.736Z,7.30
2023-02-28T16:20:31.399Z,5.93
2023-02-28T16:23:18.610Z,6.57
2023-02-28T16:26:07.255Z,6.50
2023-02-28T16:28:55.081Z,6.43
2023-02-28T16:31:42.160Z,6.73
2023-02-28T16:34:29.450Z,6.13
2023-02-28T16:37:18.537Z,7.50
2023-02-28T16:40:06.018Z,6.63
2023-02-28T16:42:56.261Z,6.80
2023-02-28T16:45:43.643Z,6.40
2023-02-28T16:48:31.708Z,6.60
2023-02-28T16:51:19.188Z,6.63
2023-02-28T16:54:06.260Z,7.77
2023-02-28T16:56:53.368Z,7.50
2023-02-28T16:59:41.214Z,7.00
2023-02-28T17:02:28.338Z,6.37
2023-02-28T17:05:15.908Z,6.87
2023-02-28T17:08:02.875Z,6.30
2023-02-28T17:10:49.939Z,6.80
2023-02-28T17:13:39.628Z,7.27
2023-02-28T17:16:35.728Z,7.03
2023-02-28T17:19:22.696Z,6.60
2023-02-28T17:22:10.360Z,7.43
2023-02-28T17:24:58.562Z,8.60
2023-02-28T17:27:45.694Z,7.33
2023-02-28T17:30:35.327Z,8.10
2023-02-28T17:33:22.337Z,8.77
2023-02-28T17:36:17.282Z,8.23
2023-02-28T17:39:09.998Z,7.97
2023-02-28T17:41:57.323Z,7.50
2023-02-28T17:44:44.334Z,8.57
2023-02-28T17:47:31.310Z,7.63
2023-02-28T17:50:22.402Z,9.10
2023-02-28T17:53:09.426Z,8.93
2023-02-28T17:55:56.416Z,9.17
2023-02-28T17:58:43.466Z,8.57
2023-02-28T18:01:30.501Z,8.17
2023-02-28T18:04:17.568Z,8.13
2023-02-28T18:07:04.746Z,8.47
2023-02-28T18:09:51.745Z,8.47
2023-02-28T18:12:38.792Z,8.70
2023-02-28T18:15:25.925Z,8.40
2023-02-28T18:18:12.926Z,8.77
2023-02-28T18:21:00.608Z,7.50
2023-02-28T18:23:48.371Z,8.00
2023-02-28T18:26:36.996Z,9.07
2023-02-28T18:29:26.434Z,8.33
2023-02-28T18:32:13.592Z,8.43
2023-02-28T18:35:00.778Z,7.93
2023-02-28T18:37:47.784Z,7.73
2023-02-28T18:40:35.183Z,9.30
2023-02-28T18:43:22.291Z,8.30
2023-02-28T18:46:17.565Z,9.47
2023-02-28T18:49:04.541Z,9.63
2023-02-28T18:51:51.516Z,9.67
2023-02-28T18:54:38.562Z,9.73
2023-02-28T18:57:25.576Z,9.70
2023-02-28T19:00:13.747Z,9.43
2023-02-28T19:03:00.795Z,9.10
2023-02-28T19:05:49.578Z,9.70
2023-02-28T19:08:37.488Z,10.20
2023-02-28T19:11:25.233Z,9.70
2023-02-28T19:14:12.200Z,9.10
2023-02-28T19:16:59.228Z,9.00
2023-02-28T19:19:46.177Z,9.43
2023-02-28T19:22:33.228Z,9.53
2023-02-28T19:25:20.356Z,9.87
2023-02-28T19:28:07.333Z,10.50
2023-02-28T19:30:54.347Z,11.53
2023-02-28T19:33:42.400Z,10.40
2023-02-28T19:36:29.679Z,11.27
2023-02-28T19:39:17.213Z,11.57
2023-02-28T19:42:04.263Z,10.50
2023-02-28T19:44:51.457Z,10.03
2023-02-28T19:47:38.767Z,10.27
2023-02-28T19:50:25.861Z,14.50
2023-02-28T19:53:12.777Z,22.30
2023-02-28T19:56:04.342Z,15.87
2023-02-28T19:58:51.360Z,16.20
2023-02-28T20:01:38.510Z,12.87
2023-02-28T20:04:27.002Z,10.30
2023-02-28T20:07:14.621Z,10.13
2023-02-28T20:10:01.606Z,9.63
2023-02-28T20:12:48.607Z,10.70
2023-02-28T20:15:37.753Z,11.60
2023-02-28T20:18:24.729Z,17.53
2023-02-28T20:21:13.420Z,17.40
2023-02-28T20:24:00.373Z,14.53
2023-02-28T20:26:47.326Z,14.40
2023-02-28T20:29:35.323Z,14.90
2023-02-28T20:32:22.426Z,16.20
2023-02-28T20:35:11.811Z,14.67
2023-02-28T20:37:58.782Z,12.67
2023-02-28T20:40:45.721Z,16.57
2023-02-28T20:43:32.801Z,14.33
2023-02-28T20:46:19.859Z,14.67
2023-02-28T20:49:07.176Z,14.60
2023-02-28T20:51:54.233Z,12.87
2023-02-28T20:54:41.209Z,14.30
2023-02-28T20:57:31.382Z,14.73
2023-02-28T21:00:19.326Z,14.87
2023-02-28T21:03:06.336Z,15.33
2023-02-28T21:05:59.754Z,15.80
2023-02-28T21:08:46.806Z,15.40
2023-02-28T21:11:36.373Z,13.93
2023-02-28T21:14:23.982Z,13.40
2023-02-28T21:17:10.911Z,13.97
2023-02-28T21:19:57.860Z,13.87
2023-02-28T21:22:44.827Z,11.53
2023-02-28T21:25:32.988Z,12.50
2023-02-28T21:28:19.903Z,14.27
2023-02-28T21:31:09.057Z,14.63
2023-02-28T21:33:58.079Z,13.43
2023-02-28T21:36:45.782Z,15.13
2023-02-28T21:39:32.887Z,13.50
2023-02-28T21:42:19.818Z,13.57
2023-02-28T21:45:07.273Z,13.73
2023-02-28T21:47:54.219Z,15.33
2023-02-28T21:50:41.159Z,17.97
2023-02-28T21:53:29.044Z,18.53
2023-02-28T21:56:19.384Z,15.70
2023-02-28T21:59:09.305Z,13.07
2023-02-28T22:01:56.357Z,12.20
2023-02-28T22:04:43.460Z,12.17
2023-02-28T22:07:30.422Z,11.83
2023-02-28T22:10:17.388Z,11.30
2023-02-28T22:13:04.439Z,12.00
2023-02-28T22:15:51.432Z,12.07
2023-02-28T22:18:39.107Z,10.67
2023-02-28T22:21:26.186Z,11.23
2023-02-28T22:24:13.327Z,11.07
2023-02-28T22:27:00.287Z,10.93
2023-02-28T22:29:48.047Z,11.93
2023-02-28T22:32:35.848Z,10.30
2023-02-28T22:35:22.835Z,11.37
2023-02-28T22:38:10.387Z,11.50
2023-02-28T22:40:57.684Z,11.30
2023-02-28T22:43:45.054Z,10.00
2023-02-28T22:46:34.012Z,11.53
2023-02-28T22:49:21.210Z,10.53
2023-02-28T22:52:08.410Z,10.50
2023-02-28T22:54:55.317Z,11.30
2023-02-28T22:57:42.280Z,11.13
2023-02-28T23:00:29.248Z,10.97
2023-02-28T23:03:16.224Z,10.57
2023-02-28T23:06:13.605Z,10.27
2023-02-28T23:09:03.847Z,10.60
2023-02-28T23:11:51.190Z,11.10
2023-02-28T23:14:38.114Z,10.70
2023-02-28T23:17:25.053Z,10.30
2023-02-28T23:20:14.420Z,10.07
2023-02-28T23:23:01.424Z,10.37
2023-02-28T23:25:48.481Z,10.83
2023-02-28T23:28:35.791Z,10.83
2023-02-28T23:31:23.852Z,9.97
2023-02-28T23:34:11.817Z,10.80
2023-02-28T23:37:00.964Z,10.60
2023-02-28T23:39:47.916Z,10.83
2023-02-28T23:42:35.764Z,9.93
2023-02-28T23:45:22.772Z,10.10
2023-02-28T23:48:09.723Z,10.07
2023-02-28T23:51:01.673Z,10.50
2023-02-28T23:53:51.569Z,11.07
2023-02-28T23:56:38.611Z,10.30
2023-02-28T23:59:25.690Z,10.03
